RYR2LW EGSS-LIPY
Flight info
| Callsign | RYR2LW |
|---|---|
| Flight time | 1h 48m |
| Altitude | 41000 |
| Route | CLN M84 KONAN UL607 KOK DCT RITAX DCT KRH DCT UTABA DCT BEMKI DCT ELMEM DCT GIRIS DCT SUMIR DCT CHI L612 LANLI |
| Aircraft | B38M/M-SADE3FGIJ1LRWY/SB1 |
Departure
| Time | 2026-04-16 09:49 |
|---|---|
| Airport | London Stansted Airport (EGSS) |
Arrival
| Time | 2026-04-16 11:37 |
|---|---|
| Airport | Marche Airport (LIPY) |
| Time | Latitude | Longitude | Altitude | Speed | Heading |
|---|---|---|---|---|---|
| 2026-04-16 09:32 | 51.89552 | 0.26364 | 359 ft | 0 kts | 222° |
| 2026-04-16 09:41 | 51.89557 | 0.26372 | 351 ft | 4 kts | 222° |
| 2026-04-16 09:42 | 51.89576 | 0.26400 | 355 ft | 4 kts | 227° |
| 2026-04-16 09:42 | 51.89582 | 0.26428 | 358 ft | 4 kts | 301° |
| 2026-04-16 09:42 | 51.89568 | 0.26453 | 360 ft | 4 kts | 313° |
| 2026-04-16 09:42 | 51.89563 | 0.26463 | 358 ft | 1 kts | 313° |
| 2026-04-16 09:45 | 51.89570 | 0.26450 | 360 ft | 6 kts | 313° |
| 2026-04-16 09:45 | 51.89620 | 0.26364 | 355 ft | 13 kts | 313° |
| 2026-04-16 09:46 | 51.89691 | 0.26239 | 354 ft | 17 kts | 313° |
| 2026-04-16 09:46 | 51.89785 | 0.26121 | 353 ft | 19 kts | 326° |
| 2026-04-16 09:46 | 51.89785 | 0.25965 | 353 ft | 17 kts | 223° |
| 2026-04-16 09:46 | 51.89691 | 0.25824 | 355 ft | 20 kts | 223° |
| 2026-04-16 09:47 | 51.89584 | 0.25663 | 354 ft | 22 kts | 223° |
| 2026-04-16 09:47 | 51.89464 | 0.25482 | 352 ft | 25 kts | 223° |
| 2026-04-16 09:47 | 51.89423 | 0.25344 | 355 ft | 14 kts | 295° |
| 2026-04-16 09:47 | 51.89489 | 0.25208 | 356 ft | 17 kts | 297° |
| 2026-04-16 09:48 | 51.89494 | 0.25012 | 351 ft | 20 kts | 266° |
| 2026-04-16 09:48 | 51.89390 | 0.24814 | 351 ft | 31 kts | 223° |
| 2026-04-16 09:48 | 51.89021 | 0.24260 | 359 ft | 109 kts | 223° |
| 2026-04-16 09:48 | 51.88344 | 0.23231 | 672 ft | 141 kts | 223° |
| 2026-04-16 09:49 | 51.87629 | 0.22147 | 1605 ft | 141 kts | 224° |
| 2026-04-16 09:49 | 51.86871 | 0.21025 | 2364 ft | 155 kts | 224° |
| 2026-04-16 09:49 | 51.85993 | 0.19812 | 2982 ft | 175 kts | 217° |
| 2026-04-16 09:49 | 51.84822 | 0.19010 | 3705 ft | 195 kts | 192° |
| 2026-04-16 09:50 | 51.83404 | 0.19405 | 4346 ft | 223 kts | 155° |
| 2026-04-16 09:50 | 51.82290 | 0.21146 | 5407 ft | 230 kts | 129° |
| 2026-04-16 09:50 | 51.81583 | 0.23525 | 6261 ft | 242 kts | 110° |
| 2026-04-16 09:50 | 51.81363 | 0.26245 | 7198 ft | 248 kts | 90° |
| 2026-04-16 09:51 | 51.81486 | 0.29104 | 7863 ft | 264 kts | 87° |
| 2026-04-16 09:51 | 51.81626 | 0.32185 | 8405 ft | 284 kts | 88° |
| 2026-04-16 09:51 | 51.81770 | 0.35479 | 8985 ft | 302 kts | 88° |
| 2026-04-16 09:51 | 51.81874 | 0.38872 | 9906 ft | 303 kts | 95° |
| 2026-04-16 09:52 | 51.81254 | 0.42090 | 10597 ft | 306 kts | 126° |
| 2026-04-16 09:52 | 51.79939 | 0.44853 | 11351 ft | 313 kts | 130° |
| 2026-04-16 09:52 | 51.78642 | 0.47778 | 12189 ft | 328 kts | 128° |
| 2026-04-16 09:52 | 51.77322 | 0.50846 | 13041 ft | 339 kts | 128° |
| 2026-04-16 09:53 | 51.75980 | 0.54003 | 14038 ft | 344 kts | 128° |
| 2026-04-16 09:53 | 51.74617 | 0.57232 | 14876 ft | 351 kts | 128° |
| 2026-04-16 09:53 | 51.73232 | 0.60524 | 15677 ft | 358 kts | 128° |
| 2026-04-16 09:53 | 51.71823 | 0.63874 | 16462 ft | 365 kts | 128° |
| 2026-04-16 09:54 | 51.70385 | 0.67292 | 17256 ft | 371 kts | 128° |
| 2026-04-16 09:54 | 51.68922 | 0.70768 | 18030 ft | 378 kts | 128° |
| 2026-04-16 09:54 | 51.67430 | 0.74304 | 18747 ft | 384 kts | 128° |
| 2026-04-16 09:54 | 51.65919 | 0.77884 | 19436 ft | 389 kts | 128° |
| 2026-04-16 09:55 | 51.64370 | 0.81547 | 20148 ft | 393 kts | 128° |
| 2026-04-16 09:55 | 51.62841 | 0.85156 | 20818 ft | 397 kts | 128° |
| 2026-04-16 09:55 | 51.61256 | 0.88894 | 21497 ft | 401 kts | 128° |
| 2026-04-16 09:55 | 51.59676 | 0.92614 | 22159 ft | 405 kts | 128° |
| 2026-04-16 09:56 | 51.58078 | 0.96372 | 22824 ft | 409 kts | 128° |
| 2026-04-16 09:56 | 51.56462 | 1.00166 | 23481 ft | 414 kts | 128° |
| 2026-04-16 09:56 | 51.54824 | 1.04004 | 24070 ft | 418 kts | 128° |
| 2026-04-16 09:56 | 51.53175 | 1.07865 | 24614 ft | 422 kts | 128° |
| 2026-04-16 09:57 | 51.51503 | 1.11773 | 25169 ft | 426 kts | 128° |
| 2026-04-16 09:57 | 51.49818 | 1.15704 | 25705 ft | 430 kts | 129° |
| 2026-04-16 09:57 | 51.48112 | 1.19679 | 26241 ft | 434 kts | 129° |
| 2026-04-16 09:57 | 51.46395 | 1.23675 | 26764 ft | 438 kts | 129° |
| 2026-04-16 09:58 | 51.44659 | 1.27708 | 27281 ft | 442 kts | 129° |
| 2026-04-16 09:58 | 51.42906 | 1.31774 | 27788 ft | 445 kts | 129° |
| 2026-04-16 09:58 | 51.41135 | 1.35874 | 28301 ft | 449 kts | 129° |
| 2026-04-16 09:58 | 51.39351 | 1.40001 | 28789 ft | 453 kts | 129° |
| 2026-04-16 09:59 | 51.37558 | 1.44138 | 29273 ft | 456 kts | 129° |
| 2026-04-16 09:59 | 51.35734 | 1.48342 | 29752 ft | 460 kts | 129° |
| 2026-04-16 09:59 | 51.33902 | 1.52558 | 30215 ft | 463 kts | 129° |
| 2026-04-16 09:59 | 51.32055 | 1.56802 | 30605 ft | 467 kts | 129° |
| 2026-04-16 10:00 | 51.30192 | 1.61073 | 30958 ft | 471 kts | 129° |
| 2026-04-16 10:00 | 51.28305 | 1.65394 | 31311 ft | 475 kts | 129° |
| 2026-04-16 10:00 | 51.26409 | 1.69729 | 31662 ft | 479 kts | 129° |
| 2026-04-16 10:01 | 51.22557 | 1.78510 | 32352 ft | 487 kts | 129° |
| 2026-04-16 10:01 | 51.20603 | 1.82956 | 32691 ft | 491 kts | 129° |
| 2026-04-16 10:01 | 51.18635 | 1.87427 | 33027 ft | 494 kts | 129° |
| 2026-04-16 10:01 | 51.16651 | 1.91927 | 33354 ft | 498 kts | 129° |
| 2026-04-16 10:02 | 51.14703 | 1.96518 | 33661 ft | 504 kts | 123° |
| 2026-04-16 10:02 | 51.13307 | 2.01668 | 34011 ft | 511 kts | 105° |
| 2026-04-16 10:02 | 51.12734 | 2.07333 | 34359 ft | 513 kts | 93° |
| 2026-04-16 10:02 | 51.12417 | 2.13010 | 34593 ft | 517 kts | 94° |
| 2026-04-16 10:03 | 51.12087 | 2.18706 | 34957 ft | 518 kts | 94° |
| 2026-04-16 10:03 | 51.11770 | 2.24431 | 35316 ft | 519 kts | 94° |
| 2026-04-16 10:03 | 51.11454 | 2.30159 | 35684 ft | 520 kts | 94° |
| 2026-04-16 10:03 | 51.11137 | 2.35896 | 36095 ft | 520 kts | 94° |
| 2026-04-16 10:04 | 51.10818 | 2.41605 | 36571 ft | 517 kts | 94° |
| 2026-04-16 10:04 | 51.10497 | 2.47302 | 37041 ft | 515 kts | 94° |
| 2026-04-16 10:04 | 51.10175 | 2.52965 | 37525 ft | 513 kts | 94° |
| 2026-04-16 10:04 | 51.09854 | 2.58586 | 37985 ft | 511 kts | 94° |
| 2026-04-16 10:05 | 51.09344 | 2.64173 | 38404 ft | 509 kts | 106° |
| 2026-04-16 10:05 | 51.08079 | 2.69392 | 38849 ft | 504 kts | 117° |
| 2026-04-16 10:05 | 51.06603 | 2.74439 | 39136 ft | 504 kts | 116° |
| 2026-04-16 10:05 | 51.05113 | 2.79485 | 39421 ft | 503 kts | 117° |
| 2026-04-16 10:06 | 51.03612 | 2.84472 | 39712 ft | 501 kts | 117° |
| 2026-04-16 10:06 | 51.02093 | 2.89470 | 40009 ft | 500 kts | 117° |
| 2026-04-16 10:06 | 51.00582 | 2.94419 | 40309 ft | 498 kts | 117° |
| 2026-04-16 10:06 | 50.99071 | 2.99355 | 40593 ft | 496 kts | 117° |
| 2026-04-16 10:07 | 50.97563 | 3.04272 | 40853 ft | 495 kts | 117° |
| 2026-04-16 10:07 | 50.96057 | 3.09172 | 41089 ft | 494 kts | 118° |
| 2026-04-16 10:07 | 50.94548 | 3.14073 | 41240 ft | 494 kts | 118° |
| 2026-04-16 10:07 | 50.93042 | 3.18956 | 41218 ft | 492 kts | 118° |
| 2026-04-16 10:08 | 50.90044 | 3.28644 | 41206 ft | 490 kts | 118° |
| 2026-04-16 10:08 | 50.87522 | 3.36763 | 41206 ft | 490 kts | 118° |
| 2026-04-16 10:09 | 50.84504 | 3.46445 | 41211 ft | 490 kts | 118° |
| 2026-04-16 10:09 | 50.81486 | 3.56087 | 41204 ft | 490 kts | 118° |
| 2026-04-16 10:10 | 50.78456 | 3.65732 | 41221 ft | 490 kts | 118° |
| 2026-04-16 10:10 | 50.75418 | 3.75366 | 41210 ft | 489 kts | 118° |
| 2026-04-16 10:11 | 50.72414 | 3.84850 | 41219 ft | 489 kts | 118° |
| 2026-04-16 10:11 | 50.69366 | 3.94440 | 41223 ft | 489 kts | 118° |
| 2026-04-16 10:12 | 50.66310 | 4.04018 | 41230 ft | 489 kts | 118° |
| 2026-04-16 10:12 | 50.63260 | 4.13538 | 41232 ft | 489 kts | 118° |
| 2026-04-16 10:13 | 50.60193 | 4.23075 | 41237 ft | 488 kts | 118° |
| 2026-04-16 10:13 | 50.57099 | 4.32659 | 41238 ft | 488 kts | 118° |
| 2026-04-16 10:14 | 50.54017 | 4.42172 | 41238 ft | 488 kts | 118° |
| 2026-04-16 10:14 | 50.50929 | 4.51667 | 41238 ft | 488 kts | 118° |
| 2026-04-16 10:15 | 50.47838 | 4.61130 | 41236 ft | 488 kts | 118° |
| 2026-04-16 10:15 | 50.44735 | 4.70599 | 41234 ft | 487 kts | 118° |
| 2026-04-16 10:16 | 50.41630 | 4.80036 | 41233 ft | 487 kts | 118° |
| 2026-04-16 10:16 | 50.38520 | 4.89453 | 41227 ft | 486 kts | 118° |
| 2026-04-16 10:17 | 50.35401 | 4.98861 | 41229 ft | 486 kts | 118° |
| 2026-04-16 10:17 | 50.32280 | 5.08243 | 41228 ft | 486 kts | 118° |
| 2026-04-16 10:18 | 50.29152 | 5.17609 | 41223 ft | 486 kts | 118° |
| 2026-04-16 10:18 | 50.26019 | 5.26954 | 41227 ft | 485 kts | 119° |
| 2026-04-16 10:19 | 50.22877 | 5.36293 | 41219 ft | 485 kts | 119° |
| 2026-04-16 10:19 | 50.19734 | 5.45602 | 41225 ft | 484 kts | 119° |
| 2026-04-16 10:20 | 50.16585 | 5.54895 | 41219 ft | 484 kts | 119° |
| 2026-04-16 10:20 | 50.13414 | 5.64228 | 41223 ft | 484 kts | 118° |
| 2026-04-16 10:21 | 50.10255 | 5.73489 | 41216 ft | 484 kts | 119° |
| 2026-04-16 10:21 | 50.07012 | 5.82649 | 41221 ft | 483 kts | 121° |
| 2026-04-16 10:22 | 50.03637 | 5.91674 | 41214 ft | 483 kts | 121° |
| 2026-04-16 10:22 | 50.00269 | 6.00717 | 41211 ft | 483 kts | 121° |
| 2026-04-16 10:23 | 49.96903 | 6.09730 | 41208 ft | 482 kts | 121° |
| 2026-04-16 10:23 | 49.93534 | 6.18717 | 41212 ft | 482 kts | 121° |
| 2026-04-16 10:24 | 49.90153 | 6.27709 | 41213 ft | 482 kts | 121° |
| 2026-04-16 10:24 | 49.86769 | 6.36674 | 41217 ft | 481 kts | 121° |
| 2026-04-16 10:25 | 49.83383 | 6.45614 | 41208 ft | 481 kts | 121° |
| 2026-04-16 10:25 | 49.79967 | 6.54606 | 41215 ft | 481 kts | 121° |
| 2026-04-16 10:26 | 49.76565 | 6.63528 | 41209 ft | 481 kts | 121° |
| 2026-04-16 10:26 | 49.73165 | 6.72416 | 41208 ft | 481 kts | 121° |
| 2026-04-16 10:27 | 49.69748 | 6.81314 | 41209 ft | 481 kts | 121° |
| 2026-04-16 10:27 | 49.66334 | 6.90177 | 41212 ft | 481 kts | 121° |
| 2026-04-16 10:28 | 49.62909 | 6.99038 | 41203 ft | 481 kts | 121° |
| 2026-04-16 10:28 | 49.59478 | 7.07886 | 41220 ft | 481 kts | 121° |
| 2026-04-16 10:29 | 49.56044 | 7.16710 | 41213 ft | 480 kts | 121° |
| 2026-04-16 10:29 | 49.52601 | 7.25529 | 41212 ft | 480 kts | 121° |
| 2026-04-16 10:30 | 49.49133 | 7.34379 | 41217 ft | 480 kts | 121° |
| 2026-04-16 10:30 | 49.45682 | 7.43160 | 41220 ft | 479 kts | 121° |
| 2026-04-16 10:31 | 49.42227 | 7.51921 | 41215 ft | 479 kts | 121° |
| 2026-04-16 10:31 | 49.38772 | 7.60653 | 41218 ft | 479 kts | 121° |
| 2026-04-16 10:32 | 49.35306 | 7.69383 | 41221 ft | 479 kts | 121° |
| 2026-04-16 10:32 | 49.31837 | 7.78092 | 41217 ft | 478 kts | 121° |
| 2026-04-16 10:33 | 49.28366 | 7.86779 | 41211 ft | 478 kts | 121° |
| 2026-04-16 10:33 | 49.24863 | 7.95515 | 41219 ft | 478 kts | 121° |
| 2026-04-16 10:34 | 49.21380 | 8.04172 | 41218 ft | 477 kts | 121° |
| 2026-04-16 10:34 | 49.17896 | 8.12804 | 41223 ft | 477 kts | 121° |
| 2026-04-16 10:35 | 49.14403 | 8.21431 | 41217 ft | 477 kts | 121° |
| 2026-04-16 10:35 | 49.11155 | 8.29429 | 41224 ft | 477 kts | 121° |
| 2026-04-16 10:36 | 49.07659 | 8.38015 | 41219 ft | 476 kts | 121° |
| 2026-04-16 10:36 | 49.04160 | 8.46585 | 41219 ft | 476 kts | 121° |
| 2026-04-16 10:37 | 49.00650 | 8.55141 | 41223 ft | 476 kts | 122° |
| 2026-04-16 10:37 | 48.98539 | 8.59008 | 41212 ft | 475 kts | 139° |
| 2026-04-16 10:37 | 48.95990 | 8.62200 | 41233 ft | 476 kts | 140° |
| 2026-04-16 10:38 | 48.91735 | 8.67516 | 41225 ft | 477 kts | 141° |
| 2026-04-16 10:38 | 48.86549 | 8.73818 | 41227 ft | 477 kts | 141° |
| 2026-04-16 10:39 | 48.81323 | 8.80104 | 41229 ft | 477 kts | 141° |
| 2026-04-16 10:39 | 48.76124 | 8.86338 | 41235 ft | 476 kts | 141° |
| 2026-04-16 10:40 | 48.70922 | 8.92558 | 41235 ft | 477 kts | 141° |
| 2026-04-16 10:40 | 48.65704 | 8.98781 | 41235 ft | 477 kts | 141° |
| 2026-04-16 10:41 | 48.60504 | 9.04964 | 41237 ft | 477 kts | 141° |
| 2026-04-16 10:41 | 48.55310 | 9.11126 | 41239 ft | 477 kts | 141° |
| 2026-04-16 10:42 | 48.50062 | 9.17334 | 41239 ft | 477 kts | 141° |
| 2026-04-16 10:42 | 48.44838 | 9.23497 | 41238 ft | 477 kts | 141° |
| 2026-04-16 10:43 | 48.39573 | 9.29691 | 41234 ft | 476 kts | 141° |
| 2026-04-16 10:43 | 48.34348 | 9.35822 | 41242 ft | 477 kts | 141° |
| 2026-04-16 10:44 | 48.29122 | 9.41941 | 41247 ft | 476 kts | 141° |
| 2026-04-16 10:44 | 48.23755 | 9.47748 | 41254 ft | 476 kts | 147° |
| 2026-04-16 10:45 | 48.18190 | 9.53172 | 41256 ft | 477 kts | 146° |
| 2026-04-16 10:45 | 48.12647 | 9.58647 | 41258 ft | 477 kts | 146° |
| 2026-04-16 10:46 | 48.07111 | 9.64112 | 41264 ft | 477 kts | 146° |
| 2026-04-16 10:46 | 48.02502 | 9.68651 | 41267 ft | 477 kts | 145° |
| 2026-04-16 10:47 | 47.98488 | 9.72595 | 41268 ft | 477 kts | 145° |
| 2026-04-16 10:48 | 47.92927 | 9.78048 | 41273 ft | 477 kts | 145° |
| 2026-04-16 10:48 | 47.87379 | 9.83473 | 41270 ft | 477 kts | 145° |
| 2026-04-16 10:49 | 47.81796 | 9.88919 | 41276 ft | 476 kts | 145° |
| 2026-04-16 10:49 | 47.76311 | 9.94256 | 41275 ft | 476 kts | 145° |
| 2026-04-16 10:50 | 47.70768 | 9.99634 | 41274 ft | 475 kts | 145° |
| 2026-04-16 10:50 | 47.65230 | 10.04995 | 41272 ft | 475 kts | 145° |
| 2026-04-16 10:51 | 47.59691 | 10.10343 | 41273 ft | 475 kts | 145° |
| 2026-04-16 10:51 | 47.54157 | 10.15671 | 41275 ft | 474 kts | 145° |
| 2026-04-16 10:52 | 47.48635 | 10.20975 | 41265 ft | 473 kts | 145° |
| 2026-04-16 10:52 | 47.43110 | 10.26267 | 41263 ft | 473 kts | 145° |
| 2026-04-16 10:53 | 47.37582 | 10.31550 | 41268 ft | 473 kts | 145° |
| 2026-04-16 10:53 | 47.32057 | 10.36817 | 41259 ft | 472 kts | 145° |
| 2026-04-16 10:54 | 47.26549 | 10.42054 | 41261 ft | 472 kts | 145° |
| 2026-04-16 10:54 | 47.20997 | 10.47320 | 41268 ft | 471 kts | 145° |
| 2026-04-16 10:55 | 47.15479 | 10.52538 | 41238 ft | 472 kts | 145° |
| 2026-04-16 10:55 | 47.09958 | 10.57749 | 41260 ft | 472 kts | 145° |
| 2026-04-16 10:56 | 47.04437 | 10.62944 | 41252 ft | 472 kts | 145° |
| 2026-04-16 10:56 | 46.98909 | 10.68135 | 41236 ft | 471 kts | 145° |
| 2026-04-16 10:57 | 46.93392 | 10.73303 | 41238 ft | 471 kts | 145° |
| 2026-04-16 10:57 | 46.87866 | 10.78467 | 41236 ft | 471 kts | 145° |
| 2026-04-16 10:58 | 46.82341 | 10.83620 | 41223 ft | 471 kts | 146° |
| 2026-04-16 10:58 | 46.76815 | 10.88771 | 41204 ft | 471 kts | 145° |
| 2026-04-16 10:59 | 46.71291 | 10.93941 | 41193 ft | 472 kts | 145° |
| 2026-04-16 10:59 | 46.65920 | 10.98959 | 41173 ft | 472 kts | 145° |
| 2026-04-16 11:00 | 46.60392 | 11.04108 | 41167 ft | 471 kts | 145° |
| 2026-04-16 11:00 | 46.54867 | 11.09244 | 41168 ft | 471 kts | 145° |
| 2026-04-16 11:01 | 46.49311 | 11.14395 | 41152 ft | 471 kts | 145° |
| 2026-04-16 11:01 | 46.43780 | 11.19510 | 41161 ft | 471 kts | 146° |
| 2026-04-16 11:02 | 46.38253 | 11.24609 | 41152 ft | 471 kts | 145° |
| 2026-04-16 11:02 | 46.32731 | 11.29693 | 41152 ft | 471 kts | 146° |
| 2026-04-16 11:03 | 46.27197 | 11.34773 | 41139 ft | 470 kts | 146° |
| 2026-04-16 11:04 | 46.18595 | 11.41591 | 41139 ft | 470 kts | 149° |
| 2026-04-16 11:04 | 46.12861 | 11.46134 | 41153 ft | 470 kts | 150° |
| 2026-04-16 11:05 | 46.07131 | 11.50668 | 41141 ft | 469 kts | 150° |
| 2026-04-16 11:05 | 46.01409 | 11.55187 | 41164 ft | 469 kts | 150° |
| 2026-04-16 11:06 | 45.95692 | 11.59691 | 41154 ft | 468 kts | 150° |
| 2026-04-16 11:06 | 45.89972 | 11.64187 | 41148 ft | 468 kts | 150° |
| 2026-04-16 11:07 | 45.84221 | 11.68696 | 41143 ft | 468 kts | 150° |
| 2026-04-16 11:07 | 45.78511 | 11.73163 | 41153 ft | 468 kts | 150° |
| 2026-04-16 11:08 | 45.72799 | 11.77621 | 41152 ft | 467 kts | 150° |
| 2026-04-16 11:08 | 45.67083 | 11.82071 | 41147 ft | 467 kts | 150° |
| 2026-04-16 11:09 | 45.62343 | 11.85753 | 41142 ft | 467 kts | 150° |
| 2026-04-16 11:09 | 45.58534 | 11.88709 | 40033 ft | 471 kts | 150° |
| 2026-04-16 11:09 | 45.56565 | 11.90233 | 39426 ft | 476 kts | 150° |
| 2026-04-16 11:09 | 45.53683 | 11.92462 | 39088 ft | 468 kts | 150° |
| 2026-04-16 11:10 | 45.50831 | 11.94668 | 38474 ft | 465 kts | 150° |
| 2026-04-16 11:10 | 45.47992 | 11.96860 | 37711 ft | 465 kts | 150° |
| 2026-04-16 11:10 | 45.45180 | 11.99029 | 36937 ft | 465 kts | 150° |
| 2026-04-16 11:10 | 45.42309 | 12.01240 | 36230 ft | 464 kts | 150° |
| 2026-04-16 11:11 | 45.39468 | 12.03426 | 35688 ft | 460 kts | 150° |
| 2026-04-16 11:11 | 45.36670 | 12.05575 | 35209 ft | 454 kts | 150° |
| 2026-04-16 11:11 | 45.33900 | 12.07702 | 34734 ft | 450 kts | 150° |
| 2026-04-16 11:11 | 45.31161 | 12.09802 | 34264 ft | 445 kts | 150° |
| 2026-04-16 11:12 | 45.28452 | 12.11877 | 33752 ft | 440 kts | 150° |
| 2026-04-16 11:12 | 45.25769 | 12.13928 | 33288 ft | 435 kts | 151° |
| 2026-04-16 11:12 | 45.23126 | 12.15948 | 32830 ft | 429 kts | 152° |
| 2026-04-16 11:12 | 45.20514 | 12.17941 | 32344 ft | 424 kts | 152° |
| 2026-04-16 11:13 | 45.17929 | 12.19914 | 31933 ft | 418 kts | 153° |
| 2026-04-16 11:13 | 45.15387 | 12.21851 | 31545 ft | 412 kts | 153° |
| 2026-04-16 11:13 | 45.12876 | 12.23764 | 31111 ft | 407 kts | 153° |
| 2026-04-16 11:13 | 45.10392 | 12.25654 | 30714 ft | 402 kts | 154° |
| 2026-04-16 11:14 | 45.07943 | 12.27516 | 30305 ft | 397 kts | 154° |
| 2026-04-16 11:14 | 45.05565 | 12.29469 | 29844 ft | 393 kts | 152° |
| 2026-04-16 11:14 | 45.03217 | 12.31413 | 29307 ft | 390 kts | 152° |
| 2026-04-16 11:14 | 45.00882 | 12.33334 | 28796 ft | 387 kts | 152° |
| 2026-04-16 11:15 | 44.98556 | 12.35244 | 28286 ft | 385 kts | 152° |
| 2026-04-16 11:15 | 44.96254 | 12.37130 | 27800 ft | 382 kts | 152° |
| 2026-04-16 11:15 | 44.93963 | 12.39007 | 27308 ft | 380 kts | 152° |
| 2026-04-16 11:15 | 44.91647 | 12.40901 | 26843 ft | 377 kts | 152° |
| 2026-04-16 11:16 | 44.89413 | 12.42727 | 26397 ft | 375 kts | 152° |
| 2026-04-16 11:16 | 44.87135 | 12.44587 | 25950 ft | 373 kts | 152° |
| 2026-04-16 11:16 | 44.84893 | 12.46415 | 25502 ft | 371 kts | 151° |
| 2026-04-16 11:16 | 44.82665 | 12.48231 | 25090 ft | 369 kts | 151° |
| 2026-04-16 11:17 | 44.80446 | 12.50038 | 24644 ft | 368 kts | 151° |
| 2026-04-16 11:17 | 44.78212 | 12.51864 | 23908 ft | 375 kts | 151° |
| 2026-04-16 11:17 | 44.75918 | 12.53736 | 22894 ft | 386 kts | 150° |
| 2026-04-16 11:17 | 44.73563 | 12.55656 | 21808 ft | 397 kts | 150° |
| 2026-04-16 11:18 | 44.71146 | 12.57625 | 20858 ft | 405 kts | 150° |
| 2026-04-16 11:18 | 44.68707 | 12.59609 | 20187 ft | 403 kts | 150° |
| 2026-04-16 11:18 | 44.66296 | 12.61569 | 19708 ft | 397 kts | 150° |
| 2026-04-16 11:18 | 44.63943 | 12.63481 | 19508 ft | 385 kts | 150° |
| 2026-04-16 11:19 | 44.61664 | 12.65330 | 19313 ft | 373 kts | 150° |
| 2026-04-16 11:19 | 44.59445 | 12.67128 | 19096 ft | 364 kts | 150° |
| 2026-04-16 11:19 | 44.57284 | 12.68879 | 18878 ft | 355 kts | 150° |
| 2026-04-16 11:19 | 44.55170 | 12.70590 | 18586 ft | 349 kts | 150° |
| 2026-04-16 11:20 | 44.53061 | 12.72288 | 18043 ft | 349 kts | 150° |
| 2026-04-16 11:20 | 44.50963 | 12.73976 | 17639 ft | 346 kts | 150° |
| 2026-04-16 11:20 | 44.48891 | 12.75642 | 17268 ft | 341 kts | 150° |
| 2026-04-16 11:20 | 44.46843 | 12.77287 | 16902 ft | 337 kts | 150° |
| 2026-04-16 11:21 | 44.44822 | 12.78909 | 16533 ft | 333 kts | 150° |
| 2026-04-16 11:21 | 44.42829 | 12.80507 | 16190 ft | 329 kts | 150° |
| 2026-04-16 11:21 | 44.40855 | 12.82089 | 15840 ft | 325 kts | 149° |
| 2026-04-16 11:21 | 44.38903 | 12.83652 | 15501 ft | 321 kts | 149° |
| 2026-04-16 11:22 | 44.36974 | 12.85195 | 15154 ft | 318 kts | 149° |
| 2026-04-16 11:22 | 44.35066 | 12.86721 | 14815 ft | 315 kts | 149° |
| 2026-04-16 11:22 | 44.33174 | 12.88237 | 14446 ft | 313 kts | 149° |
| 2026-04-16 11:22 | 44.31292 | 12.89746 | 14089 ft | 311 kts | 149° |
| 2026-04-16 11:23 | 44.29401 | 12.91261 | 13732 ft | 308 kts | 149° |
| 2026-04-16 11:23 | 44.27552 | 12.92742 | 13369 ft | 304 kts | 149° |
| 2026-04-16 11:23 | 44.25726 | 12.94203 | 12979 ft | 301 kts | 150° |
| 2026-04-16 11:23 | 44.23911 | 12.95654 | 12683 ft | 304 kts | 150° |
| 2026-04-16 11:24 | 44.22054 | 12.97137 | 12365 ft | 309 kts | 150° |
| 2026-04-16 11:24 | 44.20189 | 12.98626 | 12039 ft | 309 kts | 150° |
| 2026-04-16 11:24 | 44.18327 | 13.00111 | 11707 ft | 307 kts | 150° |
| 2026-04-16 11:24 | 44.16484 | 13.01580 | 11379 ft | 303 kts | 150° |
| 2026-04-16 11:25 | 44.14662 | 13.03031 | 11054 ft | 300 kts | 150° |
| 2026-04-16 11:25 | 44.12857 | 13.04468 | 10730 ft | 298 kts | 150° |
| 2026-04-16 11:25 | 44.11064 | 13.05893 | 10420 ft | 295 kts | 150° |
| 2026-04-16 11:25 | 44.09314 | 13.07284 | 10271 ft | 286 kts | 150° |
| 2026-04-16 11:26 | 44.07603 | 13.08643 | 10032 ft | 281 kts | 150° |
| 2026-04-16 11:26 | 44.05911 | 13.09986 | 9688 ft | 279 kts | 150° |
| 2026-04-16 11:26 | 44.04232 | 13.11318 | 9367 ft | 277 kts | 149° |
| 2026-04-16 11:26 | 44.02563 | 13.12641 | 9068 ft | 275 kts | 149° |
| 2026-04-16 11:27 | 44.00889 | 13.13967 | 8755 ft | 280 kts | 149° |
| 2026-04-16 11:27 | 43.99182 | 13.15319 | 8392 ft | 285 kts | 149° |
| 2026-04-16 11:27 | 43.97457 | 13.16684 | 8039 ft | 285 kts | 149° |
| 2026-04-16 11:27 | 43.95817 | 13.18196 | 7709 ft | 281 kts | 134° |
| 2026-04-16 11:28 | 43.94645 | 13.20317 | 7404 ft | 277 kts | 124° |
| 2026-04-16 11:28 | 43.93519 | 13.22533 | 7105 ft | 274 kts | 123° |
| 2026-04-16 11:28 | 43.92429 | 13.24692 | 6808 ft | 272 kts | 123° |
| 2026-04-16 11:28 | 43.91347 | 13.26848 | 6502 ft | 271 kts | 123° |
| 2026-04-16 11:29 | 43.90276 | 13.28987 | 6187 ft | 269 kts | 123° |
| 2026-04-16 11:29 | 43.89212 | 13.31111 | 5872 ft | 268 kts | 122° |
| 2026-04-16 11:29 | 43.88155 | 13.33223 | 5568 ft | 266 kts | 122° |
| 2026-04-16 11:29 | 43.87106 | 13.35319 | 5286 ft | 263 kts | 122° |
| 2026-04-16 11:30 | 43.86079 | 13.37371 | 5149 ft | 255 kts | 122° |
| 2026-04-16 11:30 | 43.85085 | 13.39350 | 5016 ft | 246 kts | 122° |
| 2026-04-16 11:30 | 43.84125 | 13.41263 | 4894 ft | 238 kts | 122° |
| 2026-04-16 11:30 | 43.83198 | 13.43111 | 4757 ft | 230 kts | 122° |
| 2026-04-16 11:31 | 43.82301 | 13.44895 | 4634 ft | 222 kts | 122° |
| 2026-04-16 11:31 | 43.81433 | 13.46622 | 4507 ft | 215 kts | 122° |
| 2026-04-16 11:31 | 43.80586 | 13.48308 | 4368 ft | 212 kts | 122° |
| 2026-04-16 11:31 | 43.79754 | 13.49959 | 4280 ft | 205 kts | 122° |
| 2026-04-16 11:32 | 43.78950 | 13.51557 | 4163 ft | 199 kts | 122° |
| 2026-04-16 11:32 | 43.78169 | 13.53109 | 4021 ft | 194 kts | 121° |
| 2026-04-16 11:32 | 43.77225 | 13.54447 | 3775 ft | 200 kts | 148° |
| 2026-04-16 11:32 | 43.75865 | 13.54895 | 3548 ft | 201 kts | 184° |
| 2026-04-16 11:33 | 43.74594 | 13.54258 | 3335 ft | 193 kts | 219° |
| 2026-04-16 11:33 | 43.73701 | 13.52958 | 3134 ft | 187 kts | 230° |
| 2026-04-16 11:33 | 43.72807 | 13.51631 | 2889 ft | 185 kts | 228° |
| 2026-04-16 11:33 | 43.71920 | 13.50385 | 2657 ft | 183 kts | 227° |
| 2026-04-16 11:34 | 43.71012 | 13.49132 | 2420 ft | 181 kts | 227° |
| 2026-04-16 11:34 | 43.70120 | 13.47903 | 2184 ft | 180 kts | 227° |
| 2026-04-16 11:34 | 43.69237 | 13.46685 | 1956 ft | 179 kts | 227° |
| 2026-04-16 11:34 | 43.68350 | 13.45466 | 1698 ft | 180 kts | 228° |
| 2026-04-16 11:35 | 43.67469 | 13.44251 | 1480 ft | 178 kts | 228° |
| 2026-04-16 11:35 | 43.66628 | 13.43091 | 1244 ft | 162 kts | 227° |
| 2026-04-16 11:35 | 43.65879 | 13.42065 | 1037 ft | 144 kts | 229° |
| 2026-04-16 11:35 | 43.65182 | 13.41102 | 831 ft | 142 kts | 228° |
| 2026-04-16 11:36 | 43.64483 | 13.40151 | 645 ft | 140 kts | 229° |
| 2026-04-16 11:36 | 43.63800 | 13.39205 | 441 ft | 139 kts | 229° |
| 2026-04-16 11:36 | 43.63114 | 13.38262 | 262 ft | 138 kts | 230° |
| 2026-04-16 11:36 | 43.62433 | 13.37330 | 86 ft | 137 kts | 229° |
| 2026-04-16 11:37 | 43.61812 | 13.36473 | 57 ft | 111 kts | 225° |
| 2026-04-16 11:37 | 43.61374 | 13.35875 | 56 ft | 67 kts | 224° |
| 2026-04-16 11:37 | 43.61173 | 13.35600 | 60 ft | 11 kts | 220° |
| 2026-04-16 11:37 | 43.61087 | 13.35559 | 58 ft | 15 kts | 184° |
| 2026-04-16 11:38 | 43.60968 | 13.35557 | 59 ft | 15 kts | 180° |
| 2026-04-16 11:38 | 43.60913 | 13.35550 | 59 ft | 11 kts | 199° |
| 2026-04-16 11:38 | 43.60841 | 13.35469 | 56 ft | 3 kts | 216° |
| 2026-04-16 11:38 | 43.60813 | 13.35480 | 54 ft | 6 kts | 142° |
| 2026-04-16 11:39 | 43.60797 | 13.35500 | 59 ft | 1 kts | 142° |
| 2026-04-16 11:39 | 43.60783 | 13.35505 | 57 ft | 2 kts | 165° |
| 2026-04-16 11:39 | 43.60781 | 13.35506 | 57 ft | 0 kts | 165° |
| 2026-04-16 12:05 | 43.60780 | 13.35506 | 86 ft | 1 kts | 165° |
| 2026-04-16 12:05 | 43.60777 | 13.35502 | 86 ft | 1 kts | 225° |
| 2026-04-16 12:05 | 43.60780 | 13.35490 | 59 ft | 3 kts | 309° |
| 2026-04-16 12:06 | 43.60803 | 13.35427 | 55 ft | 10 kts | 255° |
| 2026-04-16 12:06 | 43.60751 | 13.35345 | 56 ft | 13 kts | 224° |
| 2026-04-16 12:06 | 43.60710 | 13.35239 | 59 ft | 14 kts | 290° |
| 2026-04-16 12:06 | 43.60778 | 13.35136 | 55 ft | 16 kts | 314° |
| 2026-04-16 12:07 | 43.60829 | 13.35129 | 55 ft | 8 kts | 43° |
| 2026-04-16 12:07 | 43.60915 | 13.35244 | 56 ft | 43 kts | 45° |
| 2026-04-16 12:07 | 43.61304 | 13.35777 | 58 ft | 113 kts | 45° |
| 2026-04-16 12:07 | 43.62004 | 13.36752 | 120 ft | 160 kts | 42° |
| 2026-04-16 12:08 | 43.62774 | 13.37852 | 824 ft | 160 kts | 40° |
| 2026-04-16 12:08 | 43.63593 | 13.38964 | 1507 ft | 170 kts | 41° |
| 2026-04-16 12:08 | 43.64491 | 13.40177 | 1997 ft | 193 kts | 41° |
| 2026-04-16 12:08 | 43.65480 | 13.41517 | 2673 ft | 205 kts | 43° |
| 2026-04-16 12:09 | 43.66554 | 13.42870 | 3471 ft | 211 kts | 34° |
| 2026-04-16 12:09 | 43.67864 | 13.43747 | 4397 ft | 212 kts | 14° |
| 2026-04-16 12:09 | 43.69383 | 13.43897 | 4997 ft | 232 kts | 353° |
| 2026-04-16 12:09 | 43.70970 | 13.43160 | 5688 ft | 251 kts | 335° |
| 2026-04-16 12:10 | 43.72496 | 13.41808 | 6425 ft | 270 kts | 325° |
| 2026-04-16 12:10 | 43.74010 | 13.40249 | 7404 ft | 272 kts | 324° |
| 2026-04-16 12:10 | 43.75548 | 13.38673 | 8349 ft | 278 kts | 324° |
| 2026-04-16 12:10 | 43.77122 | 13.37067 | 9287 ft | 283 kts | 324° |
| 2026-04-16 12:11 | 43.78726 | 13.35431 | 10209 ft | 289 kts | 324° |
| 2026-04-16 12:11 | 43.80382 | 13.33745 | 10822 ft | 305 kts | 324° |
| 2026-04-16 12:11 | 43.82144 | 13.31951 | 11242 ft | 325 kts | 324° |
| 2026-04-16 12:11 | 43.84004 | 13.30055 | 11804 ft | 338 kts | 324° |
| 2026-04-16 12:12 | 43.85908 | 13.28110 | 12604 ft | 342 kts | 324° |
| 2026-04-16 12:12 | 43.87203 | 13.26786 | 13177 ft | 344 kts | 324° |
| 2026-04-16 12:12 | 43.89140 | 13.24804 | 13957 ft | 349 kts | 324° |
| 2026-04-16 12:12 | 43.91108 | 13.22787 | 14675 ft | 353 kts | 323° |
| 2026-04-16 12:13 | 43.93093 | 13.20752 | 15380 ft | 356 kts | 323° |
| 2026-04-16 12:13 | 43.95091 | 13.18704 | 16075 ft | 359 kts | 324° |
| 2026-04-16 12:13 | 43.97248 | 13.16917 | 16741 ft | 363 kts | 331° |
| 2026-04-16 12:13 | 43.99466 | 13.15214 | 17399 ft | 366 kts | 330° |
| 2026-04-16 12:14 | 44.01699 | 13.13468 | 18056 ft | 370 kts | 329° |
| 2026-04-16 12:14 | 44.03943 | 13.11693 | 18646 ft | 373 kts | 329° |
| 2026-04-16 12:14 | 44.06206 | 13.09891 | 19204 ft | 376 kts | 329° |
| 2026-04-16 12:14 | 44.08482 | 13.08075 | 19771 ft | 379 kts | 329° |
| 2026-04-16 12:15 | 44.10778 | 13.06239 | 20329 ft | 381 kts | 329° |
| 2026-04-16 12:15 | 44.13080 | 13.04396 | 20877 ft | 384 kts | 330° |
| 2026-04-16 12:15 | 44.15402 | 13.02536 | 21427 ft | 386 kts | 330° |
| 2026-04-16 12:15 | 44.17738 | 13.00661 | 21966 ft | 389 kts | 330° |
| 2026-04-16 12:16 | 44.20094 | 12.98769 | 22500 ft | 392 kts | 330° |
| 2026-04-16 12:16 | 44.22462 | 12.96866 | 23019 ft | 395 kts | 331° |
| 2026-04-16 12:16 | 44.24857 | 12.94939 | 23558 ft | 398 kts | 331° |
| 2026-04-16 12:16 | 44.27265 | 12.92999 | 24033 ft | 401 kts | 331° |
| 2026-04-16 12:17 | 44.29684 | 12.91050 | 24492 ft | 403 kts | 331° |
| 2026-04-16 12:17 | 44.32119 | 12.89085 | 24939 ft | 406 kts | 331° |
| 2026-04-16 12:17 | 44.34574 | 12.87116 | 25379 ft | 408 kts | 331° |
| 2026-04-16 12:17 | 44.37044 | 12.85143 | 25819 ft | 410 kts | 331° |
| 2026-04-16 12:18 | 44.39529 | 12.83154 | 26249 ft | 413 kts | 331° |
| 2026-04-16 12:18 | 44.42033 | 12.81148 | 26668 ft | 415 kts | 331° |
| 2026-04-16 12:18 | 44.44544 | 12.79135 | 27083 ft | 418 kts | 331° |
| 2026-04-16 12:18 | 44.47074 | 12.77104 | 27480 ft | 420 kts | 331° |
| 2026-04-16 12:19 | 44.49623 | 12.75056 | 27890 ft | 423 kts | 331° |
| 2026-04-16 12:19 | 44.52215 | 12.72971 | 28293 ft | 425 kts | 331° |
| 2026-04-16 12:19 | 44.54789 | 12.70894 | 28673 ft | 428 kts | 330° |
| 2026-04-16 12:19 | 44.57377 | 12.68799 | 29062 ft | 430 kts | 330° |
| 2026-04-16 12:20 | 44.59975 | 12.66695 | 29435 ft | 433 kts | 330° |
| 2026-04-16 12:20 | 44.62572 | 12.64589 | 29804 ft | 435 kts | 330° |
| 2026-04-16 12:20 | 44.65216 | 12.62443 | 30156 ft | 438 kts | 330° |
| 2026-04-16 12:20 | 44.67859 | 12.60296 | 30460 ft | 440 kts | 330° |
| 2026-04-16 12:21 | 44.70519 | 12.58132 | 30776 ft | 442 kts | 330° |
| 2026-04-16 12:21 | 44.73186 | 12.55960 | 31070 ft | 444 kts | 330° |
| 2026-04-16 12:21 | 44.75863 | 12.53779 | 31359 ft | 446 kts | 330° |
| 2026-04-16 12:21 | 44.78561 | 12.51578 | 31641 ft | 449 kts | 330° |
| 2026-04-16 12:22 | 44.81270 | 12.49366 | 31926 ft | 451 kts | 330° |
| 2026-04-16 12:22 | 44.83986 | 12.47146 | 32226 ft | 453 kts | 329° |
| 2026-04-16 12:22 | 44.86711 | 12.44915 | 32612 ft | 452 kts | 329° |
| 2026-04-16 12:22 | 44.89433 | 12.42684 | 33013 ft | 452 kts | 329° |
| 2026-04-16 12:23 | 44.92145 | 12.40459 | 33403 ft | 452 kts | 329° |
| 2026-04-16 12:23 | 44.94857 | 12.38234 | 33802 ft | 451 kts | 329° |
| 2026-04-16 12:23 | 44.97571 | 12.36002 | 34195 ft | 450 kts | 329° |
| 2026-04-16 12:23 | 45.00278 | 12.33775 | 34515 ft | 450 kts | 329° |
| 2026-04-16 12:24 | 45.02975 | 12.31554 | 34832 ft | 449 kts | 329° |
| 2026-04-16 12:24 | 45.05674 | 12.29328 | 35161 ft | 449 kts | 329° |
| 2026-04-16 12:24 | 45.08462 | 12.27329 | 35475 ft | 449 kts | 334° |
| 2026-04-16 12:24 | 45.11292 | 12.25490 | 35782 ft | 448 kts | 334° |
| 2026-04-16 12:25 | 45.14155 | 12.23585 | 36085 ft | 448 kts | 333° |
| 2026-04-16 12:25 | 45.16971 | 12.21689 | 36169 ft | 449 kts | 333° |
| 2026-04-16 12:25 | 45.22580 | 12.17890 | 36148 ft | 445 kts | 333° |
| 2026-04-16 12:26 | 45.28152 | 12.14104 | 36155 ft | 445 kts | 333° |
| 2026-04-16 12:26 | 45.33752 | 12.10291 | 36152 ft | 445 kts | 333° |
| 2026-04-16 12:27 | 45.39331 | 12.06485 | 36156 ft | 445 kts | 332° |
| 2026-04-16 12:27 | 45.44912 | 12.02667 | 36151 ft | 445 kts | 332° |
| 2026-04-16 12:28 | 45.50492 | 11.98843 | 36156 ft | 445 kts | 332° |
| 2026-04-16 12:28 | 45.56074 | 11.95028 | 36136 ft | 445 kts | 332° |
| 2026-04-16 12:29 | 45.61654 | 11.91211 | 36137 ft | 445 kts | 332° |
| 2026-04-16 12:29 | 45.67236 | 11.87384 | 36135 ft | 445 kts | 332° |
| 2026-04-16 12:30 | 45.72816 | 11.83549 | 36142 ft | 445 kts | 332° |
| 2026-04-16 12:30 | 45.78394 | 11.79708 | 36139 ft | 445 kts | 332° |
| 2026-04-16 12:31 | 45.83967 | 11.75861 | 36150 ft | 445 kts | 332° |
| 2026-04-16 12:31 | 45.89535 | 11.72009 | 36157 ft | 444 kts | 332° |
| 2026-04-16 12:32 | 45.95160 | 11.68185 | 36156 ft | 444 kts | 333° |
| 2026-04-16 12:32 | 46.00730 | 11.64482 | 36157 ft | 443 kts | 333° |
| 2026-04-16 12:33 | 46.06373 | 11.60711 | 36140 ft | 444 kts | 332° |
| 2026-04-16 12:33 | 46.11972 | 11.56961 | 36143 ft | 444 kts | 332° |
| 2026-04-16 12:34 | 46.17571 | 11.53203 | 36136 ft | 444 kts | 332° |
| 2026-04-16 12:34 | 46.23169 | 11.49437 | 36132 ft | 443 kts | 332° |
| 2026-04-16 12:35 | 46.28752 | 11.45672 | 36114 ft | 442 kts | 332° |
| 2026-04-16 12:35 | 46.34327 | 11.41905 | 36113 ft | 442 kts | 332° |
| 2026-04-16 12:36 | 46.39900 | 11.38130 | 36108 ft | 442 kts | 332° |
| 2026-04-16 12:36 | 46.45463 | 11.34353 | 36109 ft | 442 kts | 332° |
| 2026-04-16 12:37 | 46.51025 | 11.30568 | 36101 ft | 441 kts | 332° |
| 2026-04-16 12:37 | 46.56577 | 11.26782 | 36107 ft | 441 kts | 332° |
| 2026-04-16 12:38 | 46.62135 | 11.22983 | 36118 ft | 441 kts | 332° |
| 2026-04-16 12:38 | 46.67678 | 11.19186 | 36137 ft | 440 kts | 332° |
| 2026-04-16 12:39 | 46.73257 | 11.15355 | 36153 ft | 440 kts | 332° |
| 2026-04-16 12:39 | 46.78788 | 11.11549 | 36180 ft | 439 kts | 332° |
| 2026-04-16 12:40 | 46.84313 | 11.07740 | 36175 ft | 438 kts | 332° |
| 2026-04-16 12:40 | 46.86967 | 11.05582 | 36175 ft | 434 kts | 321° |
| 2026-04-16 12:40 | 46.89377 | 11.02947 | 36177 ft | 435 kts | 322° |
| 2026-04-16 12:41 | 46.94264 | 10.97729 | 36199 ft | 435 kts | 321° |
| 2026-04-16 12:41 | 46.99130 | 10.92489 | 36207 ft | 434 kts | 321° |
| 2026-04-16 12:42 | 47.03982 | 10.87252 | 36223 ft | 434 kts | 321° |
| 2026-04-16 12:42 | 47.08834 | 10.82003 | 36216 ft | 433 kts | 322° |
| 2026-04-16 12:43 | 47.13682 | 10.76745 | 36232 ft | 432 kts | 322° |
| 2026-04-16 12:43 | 47.18506 | 10.71502 | 36218 ft | 431 kts | 322° |
| 2026-04-16 12:44 | 47.23328 | 10.66248 | 36237 ft | 431 kts | 322° |
| 2026-04-16 12:44 | 47.27366 | 10.61840 | 36242 ft | 431 kts | 322° |
| 2026-04-16 12:45 | 47.32173 | 10.56578 | 36246 ft | 430 kts | 322° |
| 2026-04-16 12:45 | 47.36970 | 10.51319 | 36243 ft | 429 kts | 322° |
| 2026-04-16 12:46 | 47.41722 | 10.45974 | 36248 ft | 429 kts | 321° |
| 2026-04-16 12:46 | 47.46417 | 10.40572 | 36254 ft | 427 kts | 321° |
| 2026-04-16 12:47 | 47.51106 | 10.35177 | 36259 ft | 427 kts | 321° |
| 2026-04-16 12:47 | 47.55784 | 10.29785 | 36260 ft | 425 kts | 321° |
| 2026-04-16 12:48 | 47.60439 | 10.24405 | 36256 ft | 424 kts | 321° |
| 2026-04-16 12:48 | 47.65088 | 10.19020 | 36260 ft | 423 kts | 321° |
| 2026-04-16 12:49 | 47.69723 | 10.13639 | 36262 ft | 422 kts | 321° |
| 2026-04-16 12:49 | 47.74346 | 10.08260 | 36266 ft | 422 kts | 321° |
| 2026-04-16 12:50 | 47.78959 | 10.02880 | 36261 ft | 421 kts | 321° |
| 2026-04-16 12:50 | 47.83567 | 9.97492 | 36260 ft | 421 kts | 321° |
| 2026-04-16 12:51 | 47.88161 | 9.92110 | 36259 ft | 420 kts | 320° |
| 2026-04-16 12:51 | 47.92776 | 9.86689 | 36256 ft | 419 kts | 320° |
| 2026-04-16 12:52 | 47.97352 | 9.81303 | 36260 ft | 419 kts | 320° |
| 2026-04-16 12:52 | 48.01923 | 9.75910 | 36255 ft | 418 kts | 320° |
| 2026-04-16 12:53 | 48.06486 | 9.70515 | 36258 ft | 418 kts | 320° |
| 2026-04-16 12:53 | 48.10803 | 9.64759 | 36262 ft | 416 kts | 314° |
| 2026-04-16 12:54 | 48.14932 | 9.58688 | 36255 ft | 416 kts | 314° |
| 2026-04-16 12:54 | 48.19077 | 9.52668 | 36257 ft | 415 kts | 315° |
| 2026-04-16 12:55 | 48.23227 | 9.46643 | 36248 ft | 414 kts | 314° |
| 2026-04-16 12:55 | 48.27392 | 9.40582 | 36244 ft | 414 kts | 314° |
| 2026-04-16 12:56 | 48.31527 | 9.34550 | 36241 ft | 414 kts | 314° |
| 2026-04-16 12:56 | 48.35648 | 9.28524 | 36243 ft | 413 kts | 314° |
| 2026-04-16 12:57 | 48.39767 | 9.22488 | 36241 ft | 413 kts | 314° |
| 2026-04-16 12:57 | 48.43879 | 9.16447 | 36236 ft | 413 kts | 314° |
| 2026-04-16 12:58 | 48.47985 | 9.10401 | 36237 ft | 412 kts | 314° |
| 2026-04-16 12:58 | 48.52080 | 9.04356 | 36240 ft | 412 kts | 314° |
| 2026-04-16 12:59 | 48.56169 | 8.98306 | 36236 ft | 412 kts | 314° |
| 2026-04-16 13:00 | 48.62298 | 8.89211 | 36240 ft | 411 kts | 314° |
| 2026-04-16 13:00 | 48.66374 | 8.83142 | 36238 ft | 411 kts | 314° |
| 2026-04-16 13:01 | 48.70438 | 8.77078 | 36236 ft | 410 kts | 314° |
| 2026-04-16 13:01 | 48.74526 | 8.70964 | 36233 ft | 410 kts | 314° |
| 2026-04-16 13:02 | 48.78574 | 8.64896 | 36234 ft | 410 kts | 314° |
| 2026-04-16 13:02 | 48.82343 | 8.59231 | 36229 ft | 409 kts | 313° |
| 2026-04-16 13:03 | 48.86381 | 8.53149 | 36234 ft | 409 kts | 313° |
| 2026-04-16 13:03 | 48.90413 | 8.47061 | 36232 ft | 409 kts | 313° |
| 2026-04-16 13:04 | 48.94459 | 8.40937 | 36239 ft | 409 kts | 313° |
| 2026-04-16 13:04 | 48.98493 | 8.34817 | 36229 ft | 409 kts | 313° |
| 2026-04-16 13:05 | 49.02520 | 8.28692 | 36232 ft | 409 kts | 313° |
| 2026-04-16 13:05 | 49.06542 | 8.22560 | 36226 ft | 409 kts | 313° |
| 2026-04-16 13:06 | 49.10566 | 8.16410 | 36225 ft | 409 kts | 313° |
| 2026-04-16 13:06 | 49.14580 | 8.10261 | 36220 ft | 409 kts | 313° |
| 2026-04-16 13:07 | 49.18613 | 8.04067 | 36222 ft | 409 kts | 313° |
| 2026-04-16 13:07 | 49.22621 | 7.97898 | 36219 ft | 408 kts | 313° |
| 2026-04-16 13:08 | 49.26620 | 7.91726 | 36214 ft | 408 kts | 313° |
| 2026-04-16 13:08 | 49.30610 | 7.85552 | 36209 ft | 408 kts | 313° |
| 2026-04-16 13:09 | 49.34595 | 7.79372 | 36204 ft | 407 kts | 313° |
| 2026-04-16 13:09 | 49.38575 | 7.73186 | 36201 ft | 407 kts | 313° |
| 2026-04-16 13:10 | 49.42544 | 7.66999 | 36204 ft | 407 kts | 313° |
| 2026-04-16 13:10 | 49.46514 | 7.60797 | 36202 ft | 406 kts | 313° |
| 2026-04-16 13:11 | 49.50474 | 7.54595 | 36203 ft | 406 kts | 312° |
| 2026-04-16 13:11 | 49.54429 | 7.48387 | 36204 ft | 406 kts | 312° |
| 2026-04-16 13:12 | 49.58370 | 7.42183 | 36208 ft | 405 kts | 312° |
| 2026-04-16 13:12 | 49.62332 | 7.35932 | 36206 ft | 404 kts | 312° |
| 2026-04-16 13:13 | 49.66262 | 7.29717 | 36221 ft | 404 kts | 312° |
| 2026-04-16 13:13 | 49.70122 | 7.23596 | 36223 ft | 404 kts | 312° |
| 2026-04-16 13:14 | 49.74031 | 7.17383 | 36220 ft | 403 kts | 312° |
| 2026-04-16 13:14 | 49.77946 | 7.11147 | 36229 ft | 403 kts | 312° |
| 2026-04-16 13:15 | 49.81191 | 7.05963 | 36225 ft | 403 kts | 312° |
| 2026-04-16 13:15 | 49.85080 | 6.99740 | 36234 ft | 402 kts | 312° |
| 2026-04-16 13:16 | 49.88970 | 6.93498 | 36196 ft | 402 kts | 312° |
| 2026-04-16 13:16 | 49.92876 | 6.87217 | 36224 ft | 402 kts | 312° |
| 2026-04-16 13:17 | 49.96747 | 6.80974 | 36205 ft | 401 kts | 312° |
| 2026-04-16 13:17 | 50.00614 | 6.74726 | 36217 ft | 401 kts | 312° |
| 2026-04-16 13:18 | 50.04470 | 6.68482 | 36211 ft | 400 kts | 312° |
| 2026-04-16 13:18 | 50.08315 | 6.62241 | 36215 ft | 400 kts | 311° |
| 2026-04-16 13:19 | 50.12165 | 6.55976 | 36221 ft | 399 kts | 311° |
| 2026-04-16 13:19 | 50.16003 | 6.49717 | 36205 ft | 399 kts | 311° |
| 2026-04-16 13:20 | 50.19813 | 6.43443 | 36186 ft | 397 kts | 304° |
| 2026-04-16 13:20 | 50.22739 | 6.36173 | 36230 ft | 396 kts | 303° |
| 2026-04-16 13:21 | 50.25825 | 6.29021 | 36203 ft | 396 kts | 303° |
| 2026-04-16 13:21 | 50.28924 | 6.21907 | 36212 ft | 396 kts | 303° |
| 2026-04-16 13:22 | 50.32018 | 6.14797 | 36218 ft | 395 kts | 303° |
| 2026-04-16 13:22 | 50.35106 | 6.07682 | 36223 ft | 395 kts | 303° |
| 2026-04-16 13:23 | 50.38189 | 6.00562 | 36222 ft | 395 kts | 303° |
| 2026-04-16 13:23 | 50.41267 | 5.93431 | 36222 ft | 395 kts | 303° |
| 2026-04-16 13:24 | 50.44335 | 5.86306 | 36216 ft | 394 kts | 303° |
| 2026-04-16 13:24 | 50.47415 | 5.79136 | 36228 ft | 394 kts | 303° |
| 2026-04-16 13:25 | 50.50470 | 5.72000 | 36236 ft | 393 kts | 302° |
| 2026-04-16 13:25 | 50.53514 | 5.64873 | 36238 ft | 393 kts | 302° |
| 2026-04-16 13:26 | 50.56553 | 5.57740 | 36240 ft | 392 kts | 302° |
| 2026-04-16 13:26 | 50.59588 | 5.50594 | 36243 ft | 392 kts | 302° |
| 2026-04-16 13:27 | 50.62613 | 5.43453 | 36239 ft | 392 kts | 302° |
| 2026-04-16 13:27 | 50.65633 | 5.36303 | 36238 ft | 392 kts | 302° |
| 2026-04-16 13:28 | 50.68643 | 5.29158 | 36238 ft | 391 kts | 302° |
| 2026-04-16 13:28 | 50.71653 | 5.21994 | 36236 ft | 391 kts | 302° |
| 2026-04-16 13:29 | 50.74650 | 5.14841 | 36235 ft | 391 kts | 302° |
| 2026-04-16 13:29 | 50.77642 | 5.07682 | 36235 ft | 391 kts | 302° |
| 2026-04-16 13:30 | 50.80635 | 5.00500 | 36234 ft | 391 kts | 302° |
| 2026-04-16 13:30 | 50.83615 | 4.93327 | 36235 ft | 391 kts | 301° |
| 2026-04-16 13:31 | 50.86610 | 4.86099 | 36235 ft | 390 kts | 301° |
| 2026-04-16 13:31 | 50.89588 | 4.78896 | 36238 ft | 390 kts | 301° |
| 2026-04-16 13:32 | 50.92554 | 4.71697 | 36237 ft | 390 kts | 301° |
| 2026-04-16 13:32 | 50.95511 | 4.64502 | 36240 ft | 390 kts | 301° |
| 2026-04-16 13:33 | 50.98464 | 4.57298 | 36241 ft | 390 kts | 301° |
| 2026-04-16 13:33 | 51.01416 | 4.50075 | 36240 ft | 389 kts | 301° |
| 2026-04-16 13:34 | 51.04356 | 4.42860 | 36238 ft | 389 kts | 301° |
| 2026-04-16 13:34 | 51.07298 | 4.35623 | 36216 ft | 389 kts | 301° |
| 2026-04-16 13:35 | 51.10232 | 4.28383 | 36215 ft | 389 kts | 301° |
| 2026-04-16 13:35 | 51.13159 | 4.21141 | 36217 ft | 389 kts | 301° |
| 2026-04-16 13:36 | 51.16080 | 4.13894 | 36216 ft | 389 kts | 300° |
| 2026-04-16 13:36 | 51.19000 | 4.06629 | 36215 ft | 389 kts | 300° |
| 2026-04-16 13:37 | 51.21910 | 3.99369 | 36216 ft | 389 kts | 300° |
| 2026-04-16 13:37 | 51.24817 | 3.92097 | 36213 ft | 389 kts | 300° |
| 2026-04-16 13:38 | 51.27738 | 3.84775 | 36218 ft | 388 kts | 300° |
| 2026-04-16 13:38 | 51.30640 | 3.77481 | 36222 ft | 388 kts | 300° |
| 2026-04-16 13:39 | 51.33533 | 3.70189 | 36222 ft | 388 kts | 300° |
| 2026-04-16 13:39 | 51.35840 | 3.62508 | 36073 ft | 378 kts | 285° |
| 2026-04-16 13:39 | 51.36553 | 3.58489 | 35522 ft | 375 kts | 287° |
| 2026-04-16 13:40 | 51.37283 | 3.54512 | 35124 ft | 368 kts | 285° |
| 2026-04-16 13:40 | 51.37957 | 3.50608 | 34821 ft | 360 kts | 285° |
| 2026-04-16 13:40 | 51.38619 | 3.46810 | 34636 ft | 351 kts | 285° |
| 2026-04-16 13:40 | 51.39285 | 3.42999 | 34252 ft | 360 kts | 285° |
| 2026-04-16 13:41 | 51.39961 | 3.39132 | 33675 ft | 363 kts | 285° |
| 2026-04-16 13:41 | 51.40640 | 3.35240 | 33143 ft | 363 kts | 285° |
| 2026-04-16 13:41 | 51.41318 | 3.31341 | 32651 ft | 363 kts | 285° |
| 2026-04-16 13:41 | 51.41994 | 3.27448 | 32170 ft | 362 kts | 285° |
| 2026-04-16 13:42 | 51.42666 | 3.23566 | 31689 ft | 362 kts | 285° |
| 2026-04-16 13:42 | 51.43338 | 3.19677 | 31184 ft | 361 kts | 285° |
| 2026-04-16 13:42 | 51.44005 | 3.15802 | 30724 ft | 361 kts | 284° |
| 2026-04-16 13:42 | 51.44673 | 3.11920 | 30237 ft | 361 kts | 284° |
| 2026-04-16 13:43 | 51.45316 | 3.08053 | 29608 ft | 359 kts | 284° |
| 2026-04-16 13:43 | 51.45956 | 3.04194 | 29154 ft | 354 kts | 284° |
| 2026-04-16 13:43 | 51.46584 | 3.00406 | 28733 ft | 349 kts | 284° |
| 2026-04-16 13:43 | 51.47203 | 2.96658 | 28299 ft | 345 kts | 284° |
| 2026-04-16 13:44 | 51.47822 | 2.92909 | 27857 ft | 342 kts | 284° |
| 2026-04-16 13:44 | 51.48417 | 2.89294 | 27431 ft | 338 kts | 283° |
| 2026-04-16 13:44 | 51.49028 | 2.85575 | 26998 ft | 343 kts | 283° |
| 2026-04-16 13:44 | 51.49629 | 2.81909 | 26576 ft | 347 kts | 283° |
| 2026-04-16 13:45 | 51.50252 | 2.78098 | 26154 ft | 349 kts | 283° |
| 2026-04-16 13:45 | 51.50867 | 2.74331 | 25733 ft | 349 kts | 283° |
| 2026-04-16 13:45 | 51.51482 | 2.70558 | 25316 ft | 349 kts | 283° |
| 2026-04-16 13:45 | 51.52093 | 2.66797 | 24902 ft | 348 kts | 283° |
| 2026-04-16 13:46 | 51.52701 | 2.63048 | 24491 ft | 347 kts | 283° |
| 2026-04-16 13:46 | 51.53308 | 2.59294 | 24082 ft | 346 kts | 283° |
| 2026-04-16 13:46 | 51.53912 | 2.55553 | 23653 ft | 346 kts | 283° |
| 2026-04-16 13:46 | 51.54514 | 2.51822 | 23201 ft | 344 kts | 283° |
| 2026-04-16 13:47 | 51.54968 | 2.49384 | 22902 ft | 344 kts | 288° |
| 2026-04-16 13:47 | 51.55797 | 2.45800 | 22494 ft | 340 kts | 288° |
| 2026-04-16 13:47 | 51.56601 | 2.42246 | 22130 ft | 336 kts | 288° |
| 2026-04-16 13:47 | 51.57383 | 2.38735 | 21767 ft | 332 kts | 288° |
| 2026-04-16 13:48 | 51.58167 | 2.35252 | 21377 ft | 330 kts | 288° |
| 2026-04-16 13:48 | 51.58957 | 2.31807 | 20986 ft | 327 kts | 288° |
| 2026-04-16 13:48 | 51.59736 | 2.28393 | 20636 ft | 324 kts | 288° |
| 2026-04-16 13:48 | 51.60505 | 2.25014 | 20298 ft | 320 kts | 288° |
| 2026-04-16 13:49 | 51.61265 | 2.21665 | 19954 ft | 317 kts | 288° |
| 2026-04-16 13:49 | 51.62018 | 2.18343 | 19607 ft | 316 kts | 288° |
| 2026-04-16 13:49 | 51.62777 | 2.14989 | 19253 ft | 321 kts | 288° |
| 2026-04-16 13:49 | 51.63544 | 2.11591 | 18902 ft | 324 kts | 288° |
| 2026-04-16 13:50 | 51.64312 | 2.08135 | 18498 ft | 324 kts | 288° |
| 2026-04-16 13:50 | 51.65065 | 2.04735 | 18139 ft | 320 kts | 288° |
| 2026-04-16 13:50 | 51.65806 | 2.01388 | 17785 ft | 316 kts | 288° |
| 2026-04-16 13:50 | 51.66537 | 1.98080 | 17448 ft | 312 kts | 288° |
| 2026-04-16 13:51 | 51.67257 | 1.94818 | 17112 ft | 308 kts | 288° |
| 2026-04-16 13:51 | 51.67971 | 1.91582 | 16787 ft | 304 kts | 288° |
| 2026-04-16 13:51 | 51.68674 | 1.88386 | 16455 ft | 303 kts | 288° |
| 2026-04-16 13:51 | 51.69385 | 1.85152 | 16119 ft | 309 kts | 288° |
| 2026-04-16 13:52 | 51.70106 | 1.81863 | 15771 ft | 312 kts | 288° |
| 2026-04-16 13:52 | 51.70827 | 1.78576 | 15453 ft | 311 kts | 288° |
| 2026-04-16 13:52 | 51.71547 | 1.75282 | 15101 ft | 310 kts | 288° |
| 2026-04-16 13:52 | 51.72263 | 1.72002 | 14787 ft | 310 kts | 288° |
| 2026-04-16 13:53 | 51.72974 | 1.68740 | 14456 ft | 307 kts | 288° |
| 2026-04-16 13:53 | 51.73679 | 1.65503 | 14124 ft | 304 kts | 288° |
| 2026-04-16 13:53 | 51.74376 | 1.62296 | 13770 ft | 302 kts | 288° |
| 2026-04-16 13:53 | 51.75065 | 1.59119 | 13416 ft | 299 kts | 288° |
| 2026-04-16 13:54 | 51.75746 | 1.55976 | 13084 ft | 295 kts | 288° |
| 2026-04-16 13:54 | 51.76418 | 1.52869 | 12769 ft | 291 kts | 287° |
| 2026-04-16 13:54 | 51.77082 | 1.49795 | 12449 ft | 289 kts | 287° |
| 2026-04-16 13:54 | 51.77748 | 1.46709 | 12134 ft | 294 kts | 287° |
| 2026-04-16 13:55 | 51.78422 | 1.43577 | 11795 ft | 298 kts | 287° |
| 2026-04-16 13:55 | 51.79105 | 1.40401 | 11479 ft | 299 kts | 287° |
| 2026-04-16 13:55 | 51.79781 | 1.37250 | 11157 ft | 297 kts | 287° |
| 2026-04-16 13:55 | 51.80455 | 1.34106 | 10833 ft | 294 kts | 287° |
| 2026-04-16 13:56 | 51.81127 | 1.30968 | 10582 ft | 288 kts | 287° |
| 2026-04-16 13:56 | 51.81763 | 1.27993 | 10447 ft | 279 kts | 287° |
| 2026-04-16 13:56 | 51.82386 | 1.25073 | 10314 ft | 270 kts | 287° |
| 2026-04-16 13:56 | 51.82995 | 1.22215 | 10152 ft | 262 kts | 286° |
| 2026-04-16 13:57 | 51.83584 | 1.19447 | 9867 ft | 260 kts | 286° |
| 2026-04-16 13:57 | 51.84176 | 1.16657 | 9567 ft | 265 kts | 286° |
| 2026-04-16 13:57 | 51.84781 | 1.13809 | 9267 ft | 269 kts | 286° |
| 2026-04-16 13:58 | 51.85992 | 1.08090 | 8694 ft | 269 kts | 286° |
| 2026-04-16 13:58 | 51.86596 | 1.05230 | 8423 ft | 268 kts | 286° |
| 2026-04-16 13:58 | 51.87199 | 1.02374 | 8133 ft | 268 kts | 287° |
| 2026-04-16 13:58 | 51.87799 | 0.99530 | 7850 ft | 267 kts | 287° |
| 2026-04-16 13:59 | 51.88399 | 0.96675 | 7570 ft | 266 kts | 287° |
| 2026-04-16 13:59 | 51.88991 | 0.93858 | 7284 ft | 264 kts | 287° |
| 2026-04-16 13:59 | 51.89580 | 0.91052 | 7012 ft | 262 kts | 287° |
| 2026-04-16 13:59 | 51.90160 | 0.88281 | 6736 ft | 260 kts | 286° |
| 2026-04-16 14:00 | 51.90740 | 0.85511 | 6464 ft | 259 kts | 286° |
| 2026-04-16 14:00 | 51.91316 | 0.82754 | 6160 ft | 258 kts | 287° |
| 2026-04-16 14:00 | 51.91896 | 0.79975 | 5883 ft | 255 kts | 286° |
| 2026-04-16 14:00 | 51.92452 | 0.77309 | 5630 ft | 253 kts | 286° |
| 2026-04-16 14:01 | 51.93002 | 0.74663 | 5359 ft | 251 kts | 286° |
| 2026-04-16 14:01 | 51.93574 | 0.71913 | 5096 ft | 250 kts | 286° |
| 2026-04-16 14:01 | 51.94126 | 0.69257 | 4896 ft | 245 kts | 286° |
| 2026-04-16 14:01 | 51.94660 | 0.66676 | 4754 ft | 238 kts | 285° |
| 2026-04-16 14:02 | 51.95159 | 0.64269 | 4591 ft | 234 kts | 285° |
| 2026-04-16 14:02 | 51.95676 | 0.61768 | 4422 ft | 232 kts | 285° |
| 2026-04-16 14:02 | 51.96183 | 0.59310 | 4264 ft | 228 kts | 286° |